sensor_id;sensor_type;location;lat;lon;timestamp;P1;durP1;ratioP1;P2;durP2;ratioP2
39956;SDS011;48483;44.640;7.494;2022-12-18T00:01:58;39.97;;;33.80;;
39956;SDS011;48483;44.640;7.494;2022-12-18T00:04:26;40.63;;;35.72;;
39956;SDS011;48483;44.640;7.494;2022-12-18T00:06:54;39.00;;;34.22;;
39956;SDS011;48483;44.640;7.494;2022-12-18T00:09:21;41.00;;;36.03;;
39956;SDS011;48483;44.640;7.494;2022-12-18T00:11:48;35.53;;;31.63;;
39956;SDS011;48483;44.640;7.494;2022-12-18T00:14:14;38.95;;;34.55;;
39956;SDS011;48483;44.640;7.494;2022-12-18T00:16:43;36.85;;;32.85;;
39956;SDS011;48483;44.640;7.494;2022-12-18T00:19:10;41.53;;;33.15;;
39956;SDS011;48483;44.640;7.494;2022-12-18T00:21:37;35.47;;;31.58;;
39956;SDS011;48483;44.640;7.494;2022-12-18T00:26:37;31.92;;;25.98;;
39956;SDS011;48483;44.640;7.494;2022-12-18T00:29:06;34.28;;;28.65;;
39956;SDS011;48483;44.640;7.494;2022-12-18T00:31:34;32.25;;;28.23;;
39956;SDS011;48483;44.640;7.494;2022-12-18T00:34:01;36.05;;;29.20;;
39956;SDS011;48483;44.640;7.494;2022-12-18T00:36:29;35.50;;;29.80;;
39956;SDS011;48483;44.640;7.494;2022-12-18T00:38:58;37.88;;;30.70;;
39956;SDS011;48483;44.640;7.494;2022-12-18T00:41:45;40.17;;;32.33;;
39956;SDS011;48483;44.640;7.494;2022-12-18T00:44:31;43.20;;;33.25;;
39956;SDS011;48483;44.640;7.494;2022-12-18T00:46:57;35.75;;;30.33;;
39956;SDS011;48483;44.640;7.494;2022-12-18T00:49:24;35.35;;;27.67;;
39956;SDS011;48483;44.640;7.494;2022-12-18T00:51:50;30.48;;;25.35;;
39956;SDS011;48483;44.640;7.494;2022-12-18T00:54:17;28.48;;;24.48;;
39956;SDS011;48483;44.640;7.494;2022-12-18T00:56:45;28.50;;;24.98;;
39956;SDS011;48483;44.640;7.494;2022-12-18T00:59:12;28.58;;;25.50;;
39956;SDS011;48483;44.640;7.494;2022-12-18T01:01:38;31.20;;;26.70;;
39956;SDS011;48483;44.640;7.494;2022-12-18T01:04:05;29.02;;;25.73;;
39956;SDS011;48483;44.640;7.494;2022-12-18T01:06:32;32.35;;;27.27;;
39956;SDS011;48483;44.640;7.494;2022-12-18T01:08:59;31.70;;;27.33;;
39956;SDS011;48483;44.640;7.494;2022-12-18T01:11:25;30.15;;;26.77;;
39956;SDS011;48483;44.640;7.494;2022-12-18T01:13:53;31.65;;;27.92;;
39956;SDS011;48483;44.640;7.494;2022-12-18T01:16:21;30.02;;;26.73;;
39956;SDS011;48483;44.640;7.494;2022-12-18T01:18:50;28.42;;;25.20;;
39956;SDS011;48483;44.640;7.494;2022-12-18T01:21:19;27.13;;;24.17;;
39956;SDS011;48483;44.640;7.494;2022-12-18T01:23:46;27.52;;;23.70;;
39956;SDS011;48483;44.640;7.494;2022-12-18T01:26:13;27.70;;;24.65;;
39956;SDS011;48483;44.640;7.494;2022-12-18T01:28:41;28.27;;;25.20;;
39956;SDS011;48483;44.640;7.494;2022-12-18T01:31:12;25.67;;;23.08;;
39956;SDS011;48483;44.640;7.494;2022-12-18T01:33:40;25.75;;;23.02;;
39956;SDS011;48483;44.640;7.494;2022-12-18T01:36:07;28.02;;;23.67;;
39956;SDS011;48483;44.640;7.494;2022-12-18T01:38:39;25.55;;;22.77;;
39956;SDS011;48483;44.640;7.494;2022-12-18T01:41:07;27.60;;;23.83;;
39956;SDS011;48483;44.640;7.494;2022-12-18T01:43:44;26.67;;;23.70;;
39956;SDS011;48483;44.640;7.494;2022-12-18T01:46:15;32.20;;;26.45;;
39956;SDS011;48483;44.640;7.494;2022-12-18T01:48:44;25.42;;;20.05;;
39956;SDS011;48483;44.640;7.494;2022-12-18T01:51:12;28.95;;;24.88;;
39956;SDS011;48483;44.640;7.494;2022-12-18T01:53:40;29.98;;;26.73;;
39956;SDS011;48483;44.640;7.494;2022-12-18T01:56:10;31.90;;;27.50;;
39956;SDS011;48483;44.640;7.494;2022-12-18T01:58:41;34.40;;;28.05;;
39956;SDS011;48483;44.640;7.494;2022-12-18T02:01:16;31.35;;;27.27;;
39956;SDS011;48483;44.640;7.494;2022-12-18T02:03:43;32.55;;;28.35;;
39956;SDS011;48483;44.640;7.494;2022-12-18T02:06:13;33.03;;;27.60;;
39956;SDS011;48483;44.640;7.494;2022-12-18T02:08:54;29.35;;;26.17;;
39956;SDS011;48483;44.640;7.494;2022-12-18T02:11:31;31.23;;;26.55;;
39956;SDS011;48483;44.640;7.494;2022-12-18T02:14:07;28.85;;;25.08;;
39956;SDS011;48483;44.640;7.494;2022-12-18T02:16:43;28.88;;;25.75;;
39956;SDS011;48483;44.640;7.494;2022-12-18T02:19:20;29.08;;;25.40;;
39956;SDS011;48483;44.640;7.494;2022-12-18T02:22:05;30.35;;;25.10;;
39956;SDS011;48483;44.640;7.494;2022-12-18T02:24:41;29.08;;;24.70;;
39956;SDS011;48483;44.640;7.494;2022-12-18T02:27:20;29.80;;;25.27;;
39956;SDS011;48483;44.640;7.494;2022-12-18T02:29:50;27.88;;;23.70;;
39956;SDS011;48483;44.640;7.494;2022-12-18T02:34:47;25.40;;;21.88;;
39956;SDS011;48483;44.640;7.494;2022-12-18T02:37:17;27.95;;;23.52;;
39956;SDS011;48483;44.640;7.494;2022-12-18T02:39:48;28.75;;;23.42;;
39956;SDS011;48483;44.640;7.494;2022-12-18T02:42:17;25.57;;;22.30;;
39956;SDS011;48483;44.640;7.494;2022-12-18T02:44:47;27.75;;;22.85;;
39956;SDS011;48483;44.640;7.494;2022-12-18T02:47:19;25.77;;;22.25;;
39956;SDS011;48483;44.640;7.494;2022-12-18T02:49:49;24.65;;;20.77;;
39956;SDS011;48483;44.640;7.494;2022-12-18T02:52:25;24.35;;;21.58;;
39956;SDS011;48483;44.640;7.494;2022-12-18T02:55:01;22.42;;;19.60;;
39956;SDS011;48483;44.640;7.494;2022-12-18T03:00:10;23.13;;;18.83;;
39956;SDS011;48483;44.640;7.494;2022-12-18T03:02:43;20.13;;;17.85;;
39956;SDS011;48483;44.640;7.494;2022-12-18T03:05:14;23.20;;;19.02;;
39956;SDS011;48483;44.640;7.494;2022-12-18T03:07:47;20.25;;;18.13;;
39956;SDS011;48483;44.640;7.494;2022-12-18T03:10:21;22.77;;;19.10;;
39956;SDS011;48483;44.640;7.494;2022-12-18T03:12:53;20.38;;;17.90;;
39956;SDS011;48483;44.640;7.494;2022-12-18T03:15:28;19.45;;;17.02;;
39956;SDS011;48483;44.640;7.494;2022-12-18T03:18:06;19.05;;;16.63;;
39956;SDS011;48483;44.640;7.494;2022-12-18T03:20:39;19.20;;;17.15;;
39956;SDS011;48483;44.640;7.494;2022-12-18T03:23:14;20.63;;;16.75;;
39956;SDS011;48483;44.640;7.494;2022-12-18T03:25:46;20.88;;;16.77;;
39956;SDS011;48483;44.640;7.494;2022-12-18T03:28:19;20.27;;;18.05;;
39956;SDS011;48483;44.640;7.494;2022-12-18T03:30:56;20.67;;;16.98;;
39956;SDS011;48483;44.640;7.494;2022-12-18T03:33:29;22.08;;;17.92;;
39956;SDS011;48483;44.640;7.494;2022-12-18T03:36:00;21.95;;;18.42;;
39956;SDS011;48483;44.640;7.494;2022-12-18T03:38:27;22.40;;;18.33;;
39956;SDS011;48483;44.640;7.494;2022-12-18T03:40:56;22.33;;;18.55;;
39956;SDS011;48483;44.640;7.494;2022-12-18T03:43:35;21.40;;;17.85;;
39956;SDS011;48483;44.640;7.494;2022-12-18T03:46:14;19.75;;;16.90;;
39956;SDS011;48483;44.640;7.494;2022-12-18T03:48:48;20.77;;;16.80;;
39956;SDS011;48483;44.640;7.494;2022-12-18T03:51:23;20.73;;;18.30;;
39956;SDS011;48483;44.640;7.494;2022-12-18T03:53:53;19.77;;;17.65;;
39956;SDS011;48483;44.640;7.494;2022-12-18T03:56:30;20.65;;;18.50;;
39956;SDS011;48483;44.640;7.494;2022-12-18T04:01:30;20.33;;;16.52;;
39956;SDS011;48483;44.640;7.494;2022-12-18T04:04:00;19.77;;;16.58;;
39956;SDS011;48483;44.640;7.494;2022-12-18T04:06:30;22.17;;;18.10;;
39956;SDS011;48483;44.640;7.494;2022-12-18T04:09:03;21.38;;;17.25;;
39956;SDS011;48483;44.640;7.494;2022-12-18T04:11:32;16.67;;;13.70;;
39956;SDS011;48483;44.640;7.494;2022-12-18T04:14:02;23.58;;;19.10;;
39956;SDS011;48483;44.640;7.494;2022-12-18T04:16:31;19.60;;;17.27;;
39956;SDS011;48483;44.640;7.494;2022-12-18T04:19:01;19.23;;;16.23;;
39956;SDS011;48483;44.640;7.494;2022-12-18T04:23:58;20.30;;;15.77;;
39956;SDS011;48483;44.640;7.494;2022-12-18T04:26:25;21.10;;;17.38;;
39956;SDS011;48483;44.640;7.494;2022-12-18T04:29:06;21.58;;;17.45;;
39956;SDS011;48483;44.640;7.494;2022-12-18T04:31:34;20.98;;;16.92;;
39956;SDS011;48483;44.640;7.494;2022-12-18T04:34:02;21.13;;;18.10;;
39956;SDS011;48483;44.640;7.494;2022-12-18T04:36:36;22.48;;;17.50;;
39956;SDS011;48483;44.640;7.494;2022-12-18T04:39:03;22.90;;;17.83;;
39956;SDS011;48483;44.640;7.494;2022-12-18T04:41:30;23.73;;;18.02;;
39956;SDS011;48483;44.640;7.494;2022-12-18T04:43:57;22.83;;;17.13;;
39956;SDS011;48483;44.640;7.494;2022-12-18T04:46:24;24.58;;;17.80;;
39956;SDS011;48483;44.640;7.494;2022-12-18T04:48:52;22.42;;;17.63;;
39956;SDS011;48483;44.640;7.494;2022-12-18T04:51:19;23.00;;;18.13;;
39956;SDS011;48483;44.640;7.494;2022-12-18T04:53:45;22.40;;;17.67;;
39956;SDS011;48483;44.640;7.494;2022-12-18T04:56:13;24.02;;;18.58;;
39956;SDS011;48483;44.640;7.494;2022-12-18T04:58:41;21.88;;;17.73;;
39956;SDS011;48483;44.640;7.494;2022-12-18T05:01:10;20.35;;;16.83;;
39956;SDS011;48483;44.640;7.494;2022-12-18T05:03:38;21.48;;;18.00;;
39956;SDS011;48483;44.640;7.494;2022-12-18T05:06:06;20.05;;;17.08;;
39956;SDS011;48483;44.640;7.494;2022-12-18T05:08:33;22.02;;;16.90;;
39956;SDS011;48483;44.640;7.494;2022-12-18T05:11:01;19.20;;;16.25;;
39956;SDS011;48483;44.640;7.494;2022-12-18T05:13:30;23.97;;;17.90;;
39956;SDS011;48483;44.640;7.494;2022-12-18T05:15:57;23.30;;;17.60;;
39956;SDS011;48483;44.640;7.494;2022-12-18T05:18:24;20.38;;;16.17;;
39956;SDS011;48483;44.640;7.494;2022-12-18T05:20:51;20.35;;;15.95;;
39956;SDS011;48483;44.640;7.494;2022-12-18T05:23:21;23.13;;;17.45;;
39956;SDS011;48483;44.640;7.494;2022-12-18T05:25:50;22.05;;;16.73;;
39956;SDS011;48483;44.640;7.494;2022-12-18T05:28:17;21.40;;;16.48;;
39956;SDS011;48483;44.640;7.494;2022-12-18T05:30:47;21.33;;;17.00;;
39956;SDS011;48483;44.640;7.494;2022-12-18T05:33:14;24.33;;;17.40;;
39956;SDS011;48483;44.640;7.494;2022-12-18T05:35:41;20.35;;;15.77;;
39956;SDS011;48483;44.640;7.494;2022-12-18T05:38:08;20.67;;;16.20;;
39956;SDS011;48483;44.640;7.494;2022-12-18T05:40:36;23.08;;;16.17;;
39956;SDS011;48483;44.640;7.494;2022-12-18T05:43:02;23.98;;;16.98;;
39956;SDS011;48483;44.640;7.494;2022-12-18T05:45:32;22.20;;;16.40;;
39956;SDS011;48483;44.640;7.494;2022-12-18T05:47:58;21.48;;;16.52;;
39956;SDS011;48483;44.640;7.494;2022-12-18T05:50:25;20.55;;;16.15;;
39956;SDS011;48483;44.640;7.494;2022-12-18T05:52:51;22.52;;;16.92;;
39956;SDS011;48483;44.640;7.494;2022-12-18T05:55:18;21.05;;;16.08;;
39956;SDS011;48483;44.640;7.494;2022-12-18T05:57:46;21.42;;;15.10;;
39956;SDS011;48483;44.640;7.494;2022-12-18T06:00:13;21.20;;;14.75;;
39956;SDS011;48483;44.640;7.494;2022-12-18T06:02:40;20.92;;;15.82;;
39956;SDS011;48483;44.640;7.494;2022-12-18T06:05:07;18.15;;;15.02;;
39956;SDS011;48483;44.640;7.494;2022-12-18T06:07:34;19.35;;;14.48;;
39956;SDS011;48483;44.640;7.494;2022-12-18T06:10:01;20.42;;;14.93;;
39956;SDS011;48483;44.640;7.494;2022-12-18T06:12:29;20.20;;;15.95;;
39956;SDS011;48483;44.640;7.494;2022-12-18T06:14:57;18.88;;;15.05;;
39956;SDS011;48483;44.640;7.494;2022-12-18T06:17:27;18.27;;;15.35;;
39956;SDS011;48483;44.640;7.494;2022-12-18T06:19:54;20.55;;;16.15;;
39956;SDS011;48483;44.640;7.494;2022-12-18T06:22:21;23.58;;;16.50;;
39956;SDS011;48483;44.640;7.494;2022-12-18T06:24:47;18.52;;;15.57;;
39956;SDS011;48483;44.640;7.494;2022-12-18T06:27:14;19.35;;;14.48;;
39956;SDS011;48483;44.640;7.494;2022-12-18T06:29:41;20.08;;;15.02;;
39956;SDS011;48483;44.640;7.494;2022-12-18T06:32:09;22.23;;;17.23;;
39956;SDS011;48483;44.640;7.494;2022-12-18T06:34:36;19.67;;;15.13;;
39956;SDS011;48483;44.640;7.494;2022-12-18T06:37:03;19.38;;;15.82;;
39956;SDS011;48483;44.640;7.494;2022-12-18T06:39:30;21.92;;;15.68;;
39956;SDS011;48483;44.640;7.494;2022-12-18T06:41:57;22.88;;;16.77;;
39956;SDS011;48483;44.640;7.494;2022-12-18T06:44:23;22.45;;;17.52;;
39956;SDS011;48483;44.640;7.494;2022-12-18T06:46:50;22.88;;;17.02;;
39956;SDS011;48483;44.640;7.494;2022-12-18T06:49:17;21.42;;;18.05;;
39956;SDS011;48483;44.640;7.494;2022-12-18T06:51:44;21.08;;;16.90;;
39956;SDS011;48483;44.640;7.494;2022-12-18T06:54:11;23.98;;;17.00;;
39956;SDS011;48483;44.640;7.494;2022-12-18T06:56:38;22.70;;;17.33;;
39956;SDS011;48483;44.640;7.494;2022-12-18T06:59:04;23.05;;;17.65;;
39956;SDS011;48483;44.640;7.494;2022-12-18T07:01:31;25.02;;;17.52;;
39956;SDS011;48483;44.640;7.494;2022-12-18T07:03:58;22.27;;;17.45;;
39956;SDS011;48483;44.640;7.494;2022-12-18T07:06:26;23.20;;;18.40;;
39956;SDS011;48483;44.640;7.494;2022-12-18T07:08:53;22.63;;;17.77;;
39956;SDS011;48483;44.640;7.494;2022-12-18T07:11:20;21.48;;;15.90;;
39956;SDS011;48483;44.640;7.494;2022-12-18T07:13:47;22.83;;;16.98;;
39956;SDS011;48483;44.640;7.494;2022-12-18T07:16:14;22.95;;;17.48;;
39956;SDS011;48483;44.640;7.494;2022-12-18T07:18:43;21.52;;;16.92;;
39956;SDS011;48483;44.640;7.494;2022-12-18T07:21:10;19.67;;;15.68;;
39956;SDS011;48483;44.640;7.494;2022-12-18T07:23:41;21.38;;;16.75;;
39956;SDS011;48483;44.640;7.494;2022-12-18T07:26:09;20.98;;;16.30;;
39956;SDS011;48483;44.640;7.494;2022-12-18T07:28:37;18.48;;;15.82;;
39956;SDS011;48483;44.640;7.494;2022-12-18T07:31:06;22.95;;;16.58;;
39956;SDS011;48483;44.640;7.494;2022-12-18T07:33:34;23.08;;;16.35;;
39956;SDS011;48483;44.640;7.494;2022-12-18T07:36:01;19.02;;;15.30;;
39956;SDS011;48483;44.640;7.494;2022-12-18T07:38:29;18.25;;;15.15;;
39956;SDS011;48483;44.640;7.494;2022-12-18T07:41:01;19.80;;;15.27;;
39956;SDS011;48483;44.640;7.494;2022-12-18T07:43:28;19.45;;;14.82;;
39956;SDS011;48483;44.640;7.494;2022-12-18T07:45:55;19.98;;;14.82;;
39956;SDS011;48483;44.640;7.494;2022-12-18T07:48:21;20.88;;;15.43;;
39956;SDS011;48483;44.640;7.494;2022-12-18T07:50:48;19.40;;;15.20;;
39956;SDS011;48483;44.640;7.494;2022-12-18T07:53:15;20.70;;;16.65;;
39956;SDS011;48483;44.640;7.494;2022-12-18T07:55:42;22.42;;;16.70;;
39956;SDS011;48483;44.640;7.494;2022-12-18T07:58:10;21.70;;;17.27;;
39956;SDS011;48483;44.640;7.494;2022-12-18T08:00:37;19.02;;;16.13;;
39956;SDS011;48483;44.640;7.494;2022-12-18T08:03:03;21.20;;;16.63;;
39956;SDS011;48483;44.640;7.494;2022-12-18T08:05:30;24.50;;;17.35;;
39956;SDS011;48483;44.640;7.494;2022-12-18T08:07:57;20.00;;;16.48;;
39956;SDS011;48483;44.640;7.494;2022-12-18T08:10:24;20.17;;;16.05;;
39956;SDS011;48483;44.640;7.494;2022-12-18T08:12:51;19.98;;;16.48;;
39956;SDS011;48483;44.640;7.494;2022-12-18T08:15:19;21.73;;;17.50;;
39956;SDS011;48483;44.640;7.494;2022-12-18T08:17:46;22.77;;;18.10;;
39956;SDS011;48483;44.640;7.494;2022-12-18T08:20:12;23.08;;;18.52;;
39956;SDS011;48483;44.640;7.494;2022-12-18T08:22:44;23.50;;;17.58;;
39956;SDS011;48483;44.640;7.494;2022-12-18T08:25:10;23.33;;;19.05;;
39956;SDS011;48483;44.640;7.494;2022-12-18T08:27:37;20.75;;;17.67;;
39956;SDS011;48483;44.640;7.494;2022-12-18T08:30:04;21.52;;;17.58;;
39956;SDS011;48483;44.640;7.494;2022-12-18T08:32:33;21.70;;;16.67;;
39956;SDS011;48483;44.640;7.494;2022-12-18T08:34:59;19.70;;;17.45;;
39956;SDS011;48483;44.640;7.494;2022-12-18T08:37:26;23.25;;;18.90;;
39956;SDS011;48483;44.640;7.494;2022-12-18T08:39:53;23.75;;;18.27;;
39956;SDS011;48483;44.640;7.494;2022-12-18T08:42:19;27.02;;;19.38;;
39956;SDS011;48483;44.640;7.494;2022-12-18T08:45:05;22.17;;;17.55;;
39956;SDS011;48483;44.640;7.494;2022-12-18T08:47:34;24.85;;;19.38;;
39956;SDS011;48483;44.640;7.494;2022-12-18T08:50:00;21.92;;;19.13;;
39956;SDS011;48483;44.640;7.494;2022-12-18T08:52:27;22.17;;;18.20;;
39956;SDS011;48483;44.640;7.494;2022-12-18T08:54:54;24.25;;;19.95;;
39956;SDS011;48483;44.640;7.494;2022-12-18T08:57:20;23.70;;;19.15;;
39956;SDS011;48483;44.640;7.494;2022-12-18T08:59:47;25.60;;;20.52;;
39956;SDS011;48483;44.640;7.494;2022-12-18T09:02:14;23.30;;;18.92;;
39956;SDS011;48483;44.640;7.494;2022-12-18T09:04:42;25.98;;;21.33;;
39956;SDS011;48483;44.640;7.494;2022-12-18T09:07:10;26.98;;;21.90;;
39956;SDS011;48483;44.640;7.494;2022-12-18T09:09:36;26.85;;;22.90;;
39956;SDS011;48483;44.640;7.494;2022-12-18T09:12:03;30.45;;;25.27;;
39956;SDS011;48483;44.640;7.494;2022-12-18T09:14:30;29.25;;;24.42;;
39956;SDS011;48483;44.640;7.494;2022-12-18T09:16:56;26.60;;;23.23;;
39956;SDS011;48483;44.640;7.494;2022-12-18T09:19:23;33.28;;;25.42;;
39956;SDS011;48483;44.640;7.494;2022-12-18T09:21:51;32.90;;;27.42;;
39956;SDS011;48483;44.640;7.494;2022-12-18T09:24:18;32.22;;;26.52;;
39956;SDS011;48483;44.640;7.494;2022-12-18T09:26:44;30.67;;;26.63;;
39956;SDS011;48483;44.640;7.494;2022-12-18T09:29:11;30.50;;;26.80;;
39956;SDS011;48483;44.640;7.494;2022-12-18T09:31:38;35.90;;;27.88;;
39956;SDS011;48483;44.640;7.494;2022-12-18T09:34:05;33.92;;;27.75;;
39956;SDS011;48483;44.640;7.494;2022-12-18T09:36:32;38.67;;;31.30;;
39956;SDS011;48483;44.640;7.494;2022-12-18T09:39:00;40.92;;;32.22;;
39956;SDS011;48483;44.640;7.494;2022-12-18T09:41:32;37.78;;;30.90;;
39956;SDS011;48483;44.640;7.494;2022-12-18T09:44:10;41.95;;;34.35;;
39956;SDS011;48483;44.640;7.494;2022-12-18T09:46:46;39.78;;;32.63;;
39956;SDS011;48483;44.640;7.494;2022-12-18T09:49:18;38.00;;;30.65;;
39956;SDS011;48483;44.640;7.494;2022-12-18T09:51:49;36.20;;;30.42;;
39956;SDS011;48483;44.640;7.494;2022-12-18T09:54:22;32.13;;;27.83;;
39956;SDS011;48483;44.640;7.494;2022-12-18T09:56:51;35.83;;;29.95;;
39956;SDS011;48483;44.640;7.494;2022-12-18T09:59:21;33.78;;;28.58;;
39956;SDS011;48483;44.640;7.494;2022-12-18T10:01:51;31.48;;;26.38;;
39956;SDS011;48483;44.640;7.494;2022-12-18T10:04:18;33.03;;;28.00;;
39956;SDS011;48483;44.640;7.494;2022-12-18T10:06:46;31.92;;;28.52;;
39956;SDS011;48483;44.640;7.494;2022-12-18T10:09:23;33.13;;;29.15;;
39956;SDS011;48483;44.640;7.494;2022-12-18T10:11:56;33.20;;;29.52;;
39956;SDS011;48483;44.640;7.494;2022-12-18T10:14:34;38.60;;;34.05;;
39956;SDS011;48483;44.640;7.494;2022-12-18T10:17:09;38.83;;;32.78;;
39956;SDS011;48483;44.640;7.494;2022-12-18T10:19:44;34.10;;;29.83;;
39956;SDS011;48483;44.640;7.494;2022-12-18T10:22:19;36.17;;;30.38;;
39956;SDS011;48483;44.640;7.494;2022-12-18T10:24:55;36.40;;;31.38;;
39956;SDS011;48483;44.640;7.494;2022-12-18T10:27:27;37.35;;;32.47;;
39956;SDS011;48483;44.640;7.494;2022-12-18T10:29:55;37.47;;;31.85;;
39956;SDS011;48483;44.640;7.494;2022-12-18T10:32:23;37.90;;;32.28;;
39956;SDS011;48483;44.640;7.494;2022-12-18T10:34:52;34.10;;;29.38;;
39956;SDS011;48483;44.640;7.494;2022-12-18T10:37:20;35.85;;;30.85;;
39956;SDS011;48483;44.640;7.494;2022-12-18T10:40:04;35.13;;;30.10;;
39956;SDS011;48483;44.640;7.494;2022-12-18T10:42:35;34.85;;;29.92;;
39956;SDS011;48483;44.640;7.494;2022-12-18T10:45:02;38.17;;;33.92;;
39956;SDS011;48483;44.640;7.494;2022-12-18T10:47:34;34.05;;;30.40;;
39956;SDS011;48483;44.640;7.494;2022-12-18T10:50:01;36.47;;;30.48;;
39956;SDS011;48483;44.640;7.494;2022-12-18T10:52:28;32.75;;;28.50;;
39956;SDS011;48483;44.640;7.494;2022-12-18T10:54:55;30.55;;;27.25;;
39956;SDS011;48483;44.640;7.494;2022-12-18T10:57:33;32.27;;;27.20;;
39956;SDS011;48483;44.640;7.494;2022-12-18T11:00:18;26.92;;;23.92;;
39956;SDS011;48483;44.640;7.494;2022-12-18T11:02:50;28.40;;;24.90;;
39956;SDS011;48483;44.640;7.494;2022-12-18T11:05:24;30.42;;;26.92;;
39956;SDS011;48483;44.640;7.494;2022-12-18T11:07:53;31.13;;;26.48;;
39956;SDS011;48483;44.640;7.494;2022-12-18T11:10:21;26.65;;;23.77;;
39956;SDS011;48483;44.640;7.494;2022-12-18T11:12:50;28.48;;;23.85;;
39956;SDS011;48483;44.640;7.494;2022-12-18T11:15:19;30.27;;;25.35;;
39956;SDS011;48483;44.640;7.494;2022-12-18T11:17:48;31.38;;;26.42;;
39956;SDS011;48483;44.640;7.494;2022-12-18T11:20:30;29.70;;;26.42;;
39956;SDS011;48483;44.640;7.494;2022-12-18T11:22:59;31.38;;;26.38;;
39956;SDS011;48483;44.640;7.494;2022-12-18T11:25:28;28.73;;;24.83;;
39956;SDS011;48483;44.640;7.494;2022-12-18T11:27:58;28.67;;;25.50;;
39956;SDS011;48483;44.640;7.494;2022-12-18T11:30:26;29.23;;;24.05;;
39956;SDS011;48483;44.640;7.494;2022-12-18T11:32:55;28.92;;;25.60;;
39956;SDS011;48483;44.640;7.494;2022-12-18T11:35:37;28.45;;;25.33;;
39956;SDS011;48483;44.640;7.494;2022-12-18T11:38:16;30.42;;;25.27;;
39956;SDS011;48483;44.640;7.494;2022-12-18T11:40:47;28.98;;;25.83;;
39956;SDS011;48483;44.640;7.494;2022-12-18T11:43:21;29.98;;;26.02;;
39956;SDS011;48483;44.640;7.494;2022-12-18T11:45:54;31.33;;;26.70;;
39956;SDS011;48483;44.640;7.494;2022-12-18T11:48:25;32.00;;;28.08;;
39956;SDS011;48483;44.640;7.494;2022-12-18T11:50:55;32.95;;;29.27;;
39956;SDS011;48483;44.640;7.494;2022-12-18T11:53:23;29.98;;;26.42;;
39956;SDS011;48483;44.640;7.494;2022-12-18T11:55:55;32.38;;;28.90;;
39956;SDS011;48483;44.640;7.494;2022-12-18T11:58:32;31.08;;;27.67;;
39956;SDS011;48483;44.640;7.494;2022-12-18T12:01:22;34.45;;;28.58;;
39956;SDS011;48483;44.640;7.494;2022-12-18T12:04:07;33.55;;;29.20;;
39956;SDS011;48483;44.640;7.494;2022-12-18T12:06:52;34.75;;;28.67;;
39956;SDS011;48483;44.640;7.494;2022-12-18T12:09:26;34.25;;;30.55;;
39956;SDS011;48483;44.640;7.494;2022-12-18T12:12:06;34.95;;;28.90;;
39956;SDS011;48483;44.640;7.494;2022-12-18T12:14:46;32.35;;;27.48;;
39956;SDS011;48483;44.640;7.494;2022-12-18T12:19:56;35.15;;;25.48;;
39956;SDS011;48483;44.640;7.494;2022-12-18T12:22:34;35.10;;;30.23;;
39956;SDS011;48483;44.640;7.494;2022-12-18T12:25:13;33.88;;;27.83;;
39956;SDS011;48483;44.640;7.494;2022-12-18T12:27:49;32.78;;;28.98;;
39956;SDS011;48483;44.640;7.494;2022-12-18T12:30:27;37.22;;;29.50;;
39956;SDS011;48483;44.640;7.494;2022-12-18T12:33:14;33.83;;;28.20;;
39956;SDS011;48483;44.640;7.494;2022-12-18T12:35:52;34.28;;;28.40;;
39956;SDS011;48483;44.640;7.494;2022-12-18T12:38:30;36.38;;;30.65;;
39956;SDS011;48483;44.640;7.494;2022-12-18T12:41:02;38.08;;;30.92;;
39956;SDS011;48483;44.640;7.494;2022-12-18T12:43:33;37.92;;;31.25;;
39956;SDS011;48483;44.640;7.494;2022-12-18T12:46:06;39.13;;;31.60;;
39956;SDS011;48483;44.640;7.494;2022-12-18T12:48:35;41.00;;;31.63;;
39956;SDS011;48483;44.640;7.494;2022-12-18T12:51:09;35.03;;;29.30;;
39956;SDS011;48483;44.640;7.494;2022-12-18T12:53:40;34.92;;;30.85;;
39956;SDS011;48483;44.640;7.494;2022-12-18T12:56:07;36.03;;;30.35;;
39956;SDS011;48483;44.640;7.494;2022-12-18T12:58:37;35.80;;;29.88;;
39956;SDS011;48483;44.640;7.494;2022-12-18T13:01:14;36.92;;;31.45;;
39956;SDS011;48483;44.640;7.494;2022-12-18T13:03:53;34.53;;;30.08;;
39956;SDS011;48483;44.640;7.494;2022-12-18T13:06:29;36.35;;;30.00;;
39956;SDS011;48483;44.640;7.494;2022-12-18T13:09:06;30.30;;;25.47;;
39956;SDS011;48483;44.640;7.494;2022-12-18T13:11:36;40.72;;;31.95;;
39956;SDS011;48483;44.640;7.494;2022-12-18T13:14:24;35.43;;;31.63;;
39956;SDS011;48483;44.640;7.494;2022-12-18T13:20:02;59.55;;;46.80;;
39956;SDS011;48483;44.640;7.494;2022-12-18T13:22:32;64.03;;;47.05;;
39956;SDS011;48483;44.640;7.494;2022-12-18T13:25:00;50.53;;;40.15;;
39956;SDS011;48483;44.640;7.494;2022-12-18T13:36:15;36.92;;;31.70;;
39956;SDS011;48483;44.640;7.494;2022-12-18T13:41:36;40.00;;;35.08;;
39956;SDS011;48483;44.640;7.494;2022-12-18T13:44:10;39.83;;;33.88;;
39956;SDS011;48483;44.640;7.494;2022-12-18T13:46:42;40.90;;;35.88;;
39956;SDS011;48483;44.640;7.494;2022-12-18T13:49:16;36.85;;;32.78;;
39956;SDS011;48483;44.640;7.494;2022-12-18T13:51:51;39.13;;;33.67;;
39956;SDS011;48483;44.640;7.494;2022-12-18T13:54:21;37.00;;;32.78;;
39956;SDS011;48483;44.640;7.494;2022-12-18T13:56:51;37.65;;;32.13;;
39956;SDS011;48483;44.640;7.494;2022-12-18T13:59:18;34.25;;;29.58;;
39956;SDS011;48483;44.640;7.494;2022-12-18T14:01:47;34.60;;;30.73;;
39956;SDS011;48483;44.640;7.494;2022-12-18T14:04:18;34.15;;;29.92;;
39956;SDS011;48483;44.640;7.494;2022-12-18T14:06:49;39.47;;;32.65;;
39956;SDS011;48483;44.640;7.494;2022-12-18T14:09:20;39.40;;;33.10;;
39956;SDS011;48483;44.640;7.494;2022-12-18T14:11:51;39.33;;;35.17;;
39956;SDS011;48483;44.640;7.494;2022-12-18T14:14:40;43.33;;;38.63;;
39956;SDS011;48483;44.640;7.494;2022-12-18T14:17:09;43.92;;;37.40;;
39956;SDS011;48483;44.640;7.494;2022-12-18T14:19:37;50.38;;;42.60;;
39956;SDS011;48483;44.640;7.494;2022-12-18T14:22:12;59.22;;;48.33;;
39956;SDS011;48483;44.640;7.494;2022-12-18T14:24:42;59.35;;;48.95;;
39956;SDS011;48483;44.640;7.494;2022-12-18T14:29:53;51.00;;;44.10;;
39956;SDS011;48483;44.640;7.494;2022-12-18T14:32:20;48.88;;;40.63;;
39956;SDS011;48483;44.640;7.494;2022-12-18T14:34:47;48.40;;;40.95;;
39956;SDS011;48483;44.640;7.494;2022-12-18T14:37:16;49.00;;;42.55;;
39956;SDS011;48483;44.640;7.494;2022-12-18T14:39:55;50.55;;;43.40;;
39956;SDS011;48483;44.640;7.494;2022-12-18T14:42:24;59.53;;;49.63;;
39956;SDS011;48483;44.640;7.494;2022-12-18T14:47:58;58.92;;;47.33;;
39956;SDS011;48483;44.640;7.494;2022-12-18T14:50:25;53.85;;;44.33;;
39956;SDS011;48483;44.640;7.494;2022-12-18T14:52:54;46.30;;;39.55;;
39956;SDS011;48483;44.640;7.494;2022-12-18T14:55:20;45.22;;;36.65;;
39956;SDS011;48483;44.640;7.494;2022-12-18T14:57:49;39.50;;;35.13;;
39956;SDS011;48483;44.640;7.494;2022-12-18T15:00:19;43.42;;;35.40;;
39956;SDS011;48483;44.640;7.494;2022-12-18T15:02:48;38.05;;;31.65;;
39956;SDS011;48483;44.640;7.494;2022-12-18T15:05:18;37.08;;;31.10;;
39956;SDS011;48483;44.640;7.494;2022-12-18T15:07:46;37.05;;;32.63;;
39956;SDS011;48483;44.640;7.494;2022-12-18T15:10:16;38.90;;;31.48;;
39956;SDS011;48483;44.640;7.494;2022-12-18T15:12:46;48.40;;;38.38;;
39956;SDS011;48483;44.640;7.494;2022-12-18T15:18:13;44.30;;;35.78;;